sensor_id;sensor_type;location;lat;lon;timestamp;P1;durP1;ratioP1;P2;durP2;ratioP2
36189;SDS011;22232;50.914;13.858;2022-11-20T00:01:26;19.17;;;8.75;;
36189;SDS011;22232;50.914;13.858;2022-11-20T00:03:56;20.83;;;9.32;;
36189;SDS011;22232;50.914;13.858;2022-11-20T00:06:25;17.38;;;8.48;;
36189;SDS011;22232;50.914;13.858;2022-11-20T00:08:54;21.10;;;9.30;;
36189;SDS011;22232;50.914;13.858;2022-11-20T00:11:24;22.58;;;9.45;;
36189;SDS011;22232;50.914;13.858;2022-11-20T00:13:54;20.95;;;9.68;;
36189;SDS011;22232;50.914;13.858;2022-11-20T00:16:27;19.00;;;8.40;;
36189;SDS011;22232;50.914;13.858;2022-11-20T00:18:56;21.60;;;9.35;;
36189;SDS011;22232;50.914;13.858;2022-11-20T00:21:27;19.15;;;8.63;;
36189;SDS011;22232;50.914;13.858;2022-11-20T00:23:57;23.63;;;10.80;;
36189;SDS011;22232;50.914;13.858;2022-11-20T00:26:26;21.67;;;9.40;;
36189;SDS011;22232;50.914;13.858;2022-11-20T00:28:55;22.38;;;9.60;;
36189;SDS011;22232;50.914;13.858;2022-11-20T00:31:24;20.92;;;9.80;;
36189;SDS011;22232;50.914;13.858;2022-11-20T00:33:52;18.02;;;8.10;;
36189;SDS011;22232;50.914;13.858;2022-11-20T00:36:21;22.00;;;9.68;;
36189;SDS011;22232;50.914;13.858;2022-11-20T00:38:51;18.48;;;8.85;;
36189;SDS011;22232;50.914;13.858;2022-11-20T00:41:19;23.25;;;9.02;;
36189;SDS011;22232;50.914;13.858;2022-11-20T00:43:47;22.58;;;10.18;;
36189;SDS011;22232;50.914;13.858;2022-11-20T00:46:17;22.73;;;9.85;;
36189;SDS011;22232;50.914;13.858;2022-11-20T00:48:46;22.48;;;9.55;;
36189;SDS011;22232;50.914;13.858;2022-11-20T00:51:15;19.15;;;8.55;;
36189;SDS011;22232;50.914;13.858;2022-11-20T00:53:44;20.95;;;9.90;;
36189;SDS011;22232;50.914;13.858;2022-11-20T00:56:14;20.80;;;9.52;;
36189;SDS011;22232;50.914;13.858;2022-11-20T00:58:43;19.23;;;8.57;;
36189;SDS011;22232;50.914;13.858;2022-11-20T01:01:14;17.38;;;8.10;;
36189;SDS011;22232;50.914;13.858;2022-11-20T01:03:45;15.45;;;7.38;;
36189;SDS011;22232;50.914;13.858;2022-11-20T01:06:18;20.55;;;8.48;;
36189;SDS011;22232;50.914;13.858;2022-11-20T01:08:48;20.13;;;8.65;;
36189;SDS011;22232;50.914;13.858;2022-11-20T01:11:18;18.15;;;8.00;;
36189;SDS011;22232;50.914;13.858;2022-11-20T01:13:49;19.92;;;8.98;;
36189;SDS011;22232;50.914;13.858;2022-11-20T01:16:22;19.42;;;8.52;;
36189;SDS011;22232;50.914;13.858;2022-11-20T01:18:52;19.10;;;7.97;;
36189;SDS011;22232;50.914;13.858;2022-11-20T01:21:31;16.40;;;7.60;;
36189;SDS011;22232;50.914;13.858;2022-11-20T01:24:01;18.10;;;8.32;;
36189;SDS011;22232;50.914;13.858;2022-11-20T01:26:30;19.52;;;8.13;;
36189;SDS011;22232;50.914;13.858;2022-11-20T01:29:00;15.20;;;7.60;;
36189;SDS011;22232;50.914;13.858;2022-11-20T01:31:30;19.08;;;7.80;;
36189;SDS011;22232;50.914;13.858;2022-11-20T01:34:03;18.45;;;7.78;;
36189;SDS011;22232;50.914;13.858;2022-11-20T01:36:36;16.98;;;8.63;;
36189;SDS011;22232;50.914;13.858;2022-11-20T01:39:15;16.85;;;7.95;;
36189;SDS011;22232;50.914;13.858;2022-11-20T01:41:45;16.27;;;7.88;;
36189;SDS011;22232;50.914;13.858;2022-11-20T01:44:47;16.63;;;7.63;;
36189;SDS011;22232;50.914;13.858;2022-11-20T01:47:26;17.08;;;8.20;;
36189;SDS011;22232;50.914;13.858;2022-11-20T01:50:15;18.20;;;7.78;;
36189;SDS011;22232;50.914;13.858;2022-11-20T01:52:52;15.57;;;7.47;;
36189;SDS011;22232;50.914;13.858;2022-11-20T01:55:34;18.08;;;7.90;;
36189;SDS011;22232;50.914;13.858;2022-11-20T01:58:05;17.52;;;7.13;;
36189;SDS011;22232;50.914;13.858;2022-11-20T02:00:33;17.30;;;7.65;;
36189;SDS011;22232;50.914;13.858;2022-11-20T02:03:03;14.80;;;6.72;;
36189;SDS011;22232;50.914;13.858;2022-11-20T02:05:51;12.27;;;6.18;;
36189;SDS011;22232;50.914;13.858;2022-11-20T02:08:24;14.88;;;7.18;;
36189;SDS011;22232;50.914;13.858;2022-11-20T02:10:52;15.70;;;6.95;;
36189;SDS011;22232;50.914;13.858;2022-11-20T02:13:19;15.52;;;6.80;;
36189;SDS011;22232;50.914;13.858;2022-11-20T02:16:08;13.18;;;6.70;;
36189;SDS011;22232;50.914;13.858;2022-11-20T02:18:38;16.88;;;6.65;;
36189;SDS011;22232;50.914;13.858;2022-11-20T02:21:09;13.05;;;6.03;;
36189;SDS011;22232;50.914;13.858;2022-11-20T02:24:16;10.35;;;5.55;;
36189;SDS011;22232;50.914;13.858;2022-11-20T02:29:28;14.38;;;6.13;;
36189;SDS011;22232;50.914;13.858;2022-11-20T02:32:01;13.80;;;6.35;;
36189;SDS011;22232;50.914;13.858;2022-11-20T02:34:30;14.55;;;7.40;;
36189;SDS011;22232;50.914;13.858;2022-11-20T02:36:57;15.02;;;6.60;;
36189;SDS011;22232;50.914;13.858;2022-11-20T02:39:26;18.25;;;7.82;;
36189;SDS011;22232;50.914;13.858;2022-11-20T02:41:55;16.98;;;6.93;;
36189;SDS011;22232;50.914;13.858;2022-11-20T02:44:23;16.15;;;7.75;;
36189;SDS011;22232;50.914;13.858;2022-11-20T02:46:50;14.13;;;7.50;;
36189;SDS011;22232;50.914;13.858;2022-11-20T02:49:18;14.80;;;7.10;;
36189;SDS011;22232;50.914;13.858;2022-11-20T02:51:46;18.50;;;8.55;;
36189;SDS011;22232;50.914;13.858;2022-11-20T02:54:13;15.88;;;7.35;;
36189;SDS011;22232;50.914;13.858;2022-11-20T02:56:41;16.55;;;7.22;;
36189;SDS011;22232;50.914;13.858;2022-11-20T02:59:09;15.27;;;6.38;;
36189;SDS011;22232;50.914;13.858;2022-11-20T03:01:37;13.57;;;6.15;;
36189;SDS011;22232;50.914;13.858;2022-11-20T03:04:04;11.43;;;5.35;;
36189;SDS011;22232;50.914;13.858;2022-11-20T03:06:32;12.25;;;5.32;;
36189;SDS011;22232;50.914;13.858;2022-11-20T03:08:59;12.95;;;5.85;;
36189;SDS011;22232;50.914;13.858;2022-11-20T03:11:27;14.60;;;6.35;;
36189;SDS011;22232;50.914;13.858;2022-11-20T03:13:55;13.00;;;5.57;;
36189;SDS011;22232;50.914;13.858;2022-11-20T03:16:23;15.77;;;6.90;;
36189;SDS011;22232;50.914;13.858;2022-11-20T03:18:51;13.57;;;6.95;;
36189;SDS011;22232;50.914;13.858;2022-11-20T03:21:19;18.15;;;7.55;;
36189;SDS011;22232;50.914;13.858;2022-11-20T03:23:47;16.55;;;7.43;;
36189;SDS011;22232;50.914;13.858;2022-11-20T03:26:15;18.05;;;8.57;;
36189;SDS011;22232;50.914;13.858;2022-11-20T03:28:47;14.27;;;7.00;;
36189;SDS011;22232;50.914;13.858;2022-11-20T03:31:24;17.02;;;7.50;;
36189;SDS011;22232;50.914;13.858;2022-11-20T03:33:53;15.10;;;7.22;;
36189;SDS011;22232;50.914;13.858;2022-11-20T03:36:22;17.35;;;7.57;;
36189;SDS011;22232;50.914;13.858;2022-11-20T03:38:50;17.20;;;7.20;;
36189;SDS011;22232;50.914;13.858;2022-11-20T03:41:21;16.58;;;7.65;;
36189;SDS011;22232;50.914;13.858;2022-11-20T03:43:57;18.00;;;7.63;;
36189;SDS011;22232;50.914;13.858;2022-11-20T03:46:26;17.80;;;7.75;;
36189;SDS011;22232;50.914;13.858;2022-11-20T03:48:55;16.30;;;7.57;;
36189;SDS011;22232;50.914;13.858;2022-11-20T03:51:24;19.45;;;7.80;;
36189;SDS011;22232;50.914;13.858;2022-11-20T03:53:54;21.60;;;9.50;;
36189;SDS011;22232;50.914;13.858;2022-11-20T03:56:23;26.98;;;10.10;;
36189;SDS011;22232;50.914;13.858;2022-11-20T03:58:52;20.85;;;10.02;;
36189;SDS011;22232;50.914;13.858;2022-11-20T04:01:21;18.05;;;8.32;;
36189;SDS011;22232;50.914;13.858;2022-11-20T04:03:51;21.05;;;8.60;;
36189;SDS011;22232;50.914;13.858;2022-11-20T04:06:21;15.38;;;7.45;;
36189;SDS011;22232;50.914;13.858;2022-11-20T04:08:57;17.75;;;7.57;;
36189;SDS011;22232;50.914;13.858;2022-11-20T04:11:26;14.02;;;6.95;;
36189;SDS011;22232;50.914;13.858;2022-11-20T04:13:59;15.45;;;7.05;;
36189;SDS011;22232;50.914;13.858;2022-11-20T04:16:29;14.38;;;6.50;;
36189;SDS011;22232;50.914;13.858;2022-11-20T04:18:59;15.63;;;6.47;;
36189;SDS011;22232;50.914;13.858;2022-11-20T04:21:28;12.15;;;6.53;;
36189;SDS011;22232;50.914;13.858;2022-11-20T04:23:56;15.90;;;6.70;;
36189;SDS011;22232;50.914;13.858;2022-11-20T04:26:25;16.40;;;7.00;;
36189;SDS011;22232;50.914;13.858;2022-11-20T04:28:54;14.80;;;7.40;;
36189;SDS011;22232;50.914;13.858;2022-11-20T04:31:22;18.27;;;8.60;;
36189;SDS011;22232;50.914;13.858;2022-11-20T04:33:51;17.38;;;7.75;;
36189;SDS011;22232;50.914;13.858;2022-11-20T04:36:20;21.27;;;9.32;;
36189;SDS011;22232;50.914;13.858;2022-11-20T04:38:50;17.50;;;8.50;;
36189;SDS011;22232;50.914;13.858;2022-11-20T04:41:24;20.92;;;8.88;;
36189;SDS011;22232;50.914;13.858;2022-11-20T04:43:54;24.13;;;10.57;;
36189;SDS011;22232;50.914;13.858;2022-11-20T04:46:39;24.75;;;11.13;;
36189;SDS011;22232;50.914;13.858;2022-11-20T04:49:08;27.73;;;11.85;;
36189;SDS011;22232;50.914;13.858;2022-11-20T04:51:36;27.80;;;11.85;;
36189;SDS011;22232;50.914;13.858;2022-11-20T04:54:03;28.40;;;11.75;;
36189;SDS011;22232;50.914;13.858;2022-11-20T04:56:31;26.23;;;12.30;;
36189;SDS011;22232;50.914;13.858;2022-11-20T04:59:02;30.90;;;13.13;;
36189;SDS011;22232;50.914;13.858;2022-11-20T05:01:30;32.53;;;13.77;;
36189;SDS011;22232;50.914;13.858;2022-11-20T05:03:58;30.17;;;13.82;;
36189;SDS011;22232;50.914;13.858;2022-11-20T05:06:25;33.88;;;14.40;;
36189;SDS011;22232;50.914;13.858;2022-11-20T05:08:52;36.60;;;15.40;;
36189;SDS011;22232;50.914;13.858;2022-11-20T05:11:20;36.70;;;15.95;;
36189;SDS011;22232;50.914;13.858;2022-11-20T05:13:49;37.42;;;15.57;;
36189;SDS011;22232;50.914;13.858;2022-11-20T05:16:19;35.55;;;15.20;;
36189;SDS011;22232;50.914;13.858;2022-11-20T05:18:48;34.67;;;15.50;;
36189;SDS011;22232;50.914;13.858;2022-11-20T05:21:17;39.63;;;16.92;;
36189;SDS011;22232;50.914;13.858;2022-11-20T05:23:45;34.95;;;15.13;;
36189;SDS011;22232;50.914;13.858;2022-11-20T05:26:17;40.65;;;17.33;;
36189;SDS011;22232;50.914;13.858;2022-11-20T05:28:46;35.80;;;16.27;;
36189;SDS011;22232;50.914;13.858;2022-11-20T05:31:15;39.58;;;16.65;;
36189;SDS011;22232;50.914;13.858;2022-11-20T05:33:54;37.50;;;16.30;;
36189;SDS011;22232;50.914;13.858;2022-11-20T05:36:24;40.30;;;17.13;;
36189;SDS011;22232;50.914;13.858;2022-11-20T05:38:51;38.70;;;16.23;;
36189;SDS011;22232;50.914;13.858;2022-11-20T05:41:27;39.13;;;16.60;;
36189;SDS011;22232;50.914;13.858;2022-11-20T05:43:55;37.28;;;16.75;;
36189;SDS011;22232;50.914;13.858;2022-11-20T05:46:22;41.25;;;17.35;;
36189;SDS011;22232;50.914;13.858;2022-11-20T05:48:55;39.28;;;17.20;;
36189;SDS011;22232;50.914;13.858;2022-11-20T05:51:24;43.90;;;18.30;;
36189;SDS011;22232;50.914;13.858;2022-11-20T05:53:52;43.80;;;18.17;;
36189;SDS011;22232;50.914;13.858;2022-11-20T05:56:20;41.58;;;17.67;;
36189;SDS011;22232;50.914;13.858;2022-11-20T05:58:48;40.20;;;18.38;;
36189;SDS011;22232;50.914;13.858;2022-11-20T06:01:17;50.42;;;20.63;;
36189;SDS011;22232;50.914;13.858;2022-11-20T06:03:50;49.50;;;19.30;;
36189;SDS011;22232;50.914;13.858;2022-11-20T06:06:18;41.35;;;18.02;;
36189;SDS011;22232;50.914;13.858;2022-11-20T06:08:47;49.45;;;20.27;;
36189;SDS011;22232;50.914;13.858;2022-11-20T06:11:15;47.85;;;19.33;;
36189;SDS011;22232;50.914;13.858;2022-11-20T06:13:44;45.75;;;18.83;;
36189;SDS011;22232;50.914;13.858;2022-11-20T06:16:12;49.45;;;19.30;;
36189;SDS011;22232;50.914;13.858;2022-11-20T06:18:42;46.35;;;19.13;;
36189;SDS011;22232;50.914;13.858;2022-11-20T06:21:11;43.45;;;18.80;;
36189;SDS011;22232;50.914;13.858;2022-11-20T06:23:41;46.17;;;19.42;;
36189;SDS011;22232;50.914;13.858;2022-11-20T06:26:13;44.28;;;19.00;;
36189;SDS011;22232;50.914;13.858;2022-11-20T06:28:42;46.10;;;18.83;;
36189;SDS011;22232;50.914;13.858;2022-11-20T06:31:10;49.67;;;19.85;;
36189;SDS011;22232;50.914;13.858;2022-11-20T06:33:40;48.13;;;19.48;;
36189;SDS011;22232;50.914;13.858;2022-11-20T06:36:10;48.67;;;19.67;;
36189;SDS011;22232;50.914;13.858;2022-11-20T06:38:39;45.50;;;18.30;;
36189;SDS011;22232;50.914;13.858;2022-11-20T06:41:09;50.30;;;20.23;;
36189;SDS011;22232;50.914;13.858;2022-11-20T06:46:08;53.28;;;20.67;;
36189;SDS011;22232;50.914;13.858;2022-11-20T06:48:37;51.13;;;20.40;;
36189;SDS011;22232;50.914;13.858;2022-11-20T06:51:05;48.88;;;20.25;;
36189;SDS011;22232;50.914;13.858;2022-11-20T06:53:34;49.88;;;19.80;;
36189;SDS011;22232;50.914;13.858;2022-11-20T06:56:03;44.50;;;19.65;;
36189;SDS011;22232;50.914;13.858;2022-11-20T06:58:31;43.03;;;18.08;;
36189;SDS011;22232;50.914;13.858;2022-11-20T07:01:04;42.28;;;18.42;;
36189;SDS011;22232;50.914;13.858;2022-11-20T07:03:34;39.88;;;16.50;;
36189;SDS011;22232;50.914;13.858;2022-11-20T07:06:02;41.25;;;17.42;;
36189;SDS011;22232;50.914;13.858;2022-11-20T07:08:31;34.83;;;16.35;;
36189;SDS011;22232;50.914;13.858;2022-11-20T07:11:03;36.83;;;15.93;;
36189;SDS011;22232;50.914;13.858;2022-11-20T07:13:32;33.75;;;15.35;;
36189;SDS011;22232;50.914;13.858;2022-11-20T07:16:01;37.28;;;16.00;;
36189;SDS011;22232;50.914;13.858;2022-11-20T07:18:30;31.42;;;14.40;;
36189;SDS011;22232;50.914;13.858;2022-11-20T07:21:01;32.10;;;15.23;;
36189;SDS011;22232;50.914;13.858;2022-11-20T07:23:29;35.10;;;16.55;;
36189;SDS011;22232;50.914;13.858;2022-11-20T07:25:57;29.63;;;15.15;;
36189;SDS011;22232;50.914;13.858;2022-11-20T07:28:25;27.95;;;13.55;;
36189;SDS011;22232;50.914;13.858;2022-11-20T07:30:53;29.70;;;13.23;;
36189;SDS011;22232;50.914;13.858;2022-11-20T07:33:20;28.73;;;13.43;;
36189;SDS011;22232;50.914;13.858;2022-11-20T07:35:48;26.65;;;12.95;;
36189;SDS011;22232;50.914;13.858;2022-11-20T07:38:16;26.77;;;13.30;;
36189;SDS011;22232;50.914;13.858;2022-11-20T07:40:43;26.50;;;13.32;;
36189;SDS011;22232;50.914;13.858;2022-11-20T07:43:11;24.08;;;12.18;;
36189;SDS011;22232;50.914;13.858;2022-11-20T07:45:38;25.35;;;11.70;;
36189;SDS011;22232;50.914;13.858;2022-11-20T07:48:06;27.63;;;12.13;;
36189;SDS011;22232;50.914;13.858;2022-11-20T07:50:33;27.10;;;12.50;;
36189;SDS011;22232;50.914;13.858;2022-11-20T07:53:02;21.48;;;10.90;;
36189;SDS011;22232;50.914;13.858;2022-11-20T07:55:30;21.17;;;10.88;;
36189;SDS011;22232;50.914;13.858;2022-11-20T07:57:59;21.67;;;10.70;;
36189;SDS011;22232;50.914;13.858;2022-11-20T08:00:27;21.73;;;10.63;;
36189;SDS011;22232;50.914;13.858;2022-11-20T08:02:55;22.65;;;10.45;;
36189;SDS011;22232;50.914;13.858;2022-11-20T08:05:22;21.08;;;10.38;;
36189;SDS011;22232;50.914;13.858;2022-11-20T08:07:50;21.88;;;11.18;;
36189;SDS011;22232;50.914;13.858;2022-11-20T08:10:17;22.67;;;11.00;;
36189;SDS011;22232;50.914;13.858;2022-11-20T08:15:38;21.42;;;9.93;;
36189;SDS011;22232;50.914;13.858;2022-11-20T08:18:07;23.33;;;11.27;;
36189;SDS011;22232;50.914;13.858;2022-11-20T08:20:58;23.48;;;12.30;;
36189;SDS011;22232;50.914;13.858;2022-11-20T08:23:29;23.73;;;11.18;;
36189;SDS011;22232;50.914;13.858;2022-11-20T08:25:57;24.63;;;11.70;;
36189;SDS011;22232;50.914;13.858;2022-11-20T08:28:24;22.65;;;10.75;;
36189;SDS011;22232;50.914;13.858;2022-11-20T08:30:57;21.00;;;10.02;;
36189;SDS011;22232;50.914;13.858;2022-11-20T08:33:26;18.10;;;9.07;;
36189;SDS011;22232;50.914;13.858;2022-11-20T08:35:57;18.30;;;9.32;;
36189;SDS011;22232;50.914;13.858;2022-11-20T08:38:29;18.40;;;9.05;;
36189;SDS011;22232;50.914;13.858;2022-11-20T08:40:58;16.50;;;9.02;;
36189;SDS011;22232;50.914;13.858;2022-11-20T08:43:44;16.38;;;8.77;;
36189;SDS011;22232;50.914;13.858;2022-11-20T08:46:12;16.85;;;9.00;;
36189;SDS011;22232;50.914;13.858;2022-11-20T08:48:39;15.68;;;8.40;;
36189;SDS011;22232;50.914;13.858;2022-11-20T08:51:07;16.85;;;8.45;;
36189;SDS011;22232;50.914;13.858;2022-11-20T08:53:35;14.90;;;7.75;;
36189;SDS011;22232;50.914;13.858;2022-11-20T08:56:02;15.57;;;7.72;;
36189;SDS011;22232;50.914;13.858;2022-11-20T08:58:30;13.93;;;7.00;;
36189;SDS011;22232;50.914;13.858;2022-11-20T09:01:18;16.67;;;7.72;;
36189;SDS011;22232;50.914;13.858;2022-11-20T09:03:47;15.30;;;7.40;;
36189;SDS011;22232;50.914;13.858;2022-11-20T09:06:14;20.30;;;10.07;;
36189;SDS011;22232;50.914;13.858;2022-11-20T09:08:42;23.77;;;10.98;;
36189;SDS011;22232;50.914;13.858;2022-11-20T09:11:10;23.83;;;11.70;;
36189;SDS011;22232;50.914;13.858;2022-11-20T09:13:38;18.10;;;9.00;;
36189;SDS011;22232;50.914;13.858;2022-11-20T09:16:06;18.73;;;9.68;;
36189;SDS011;22232;50.914;13.858;2022-11-20T09:18:35;19.58;;;9.10;;
36189;SDS011;22232;50.914;13.858;2022-11-20T09:21:05;21.60;;;9.30;;
36189;SDS011;22232;50.914;13.858;2022-11-20T09:23:34;18.65;;;8.80;;
36189;SDS011;22232;50.914;13.858;2022-11-20T09:26:07;19.08;;;8.50;;
36189;SDS011;22232;50.914;13.858;2022-11-20T09:28:37;17.85;;;8.60;;
36189;SDS011;22232;50.914;13.858;2022-11-20T09:31:08;21.98;;;9.73;;
36189;SDS011;22232;50.914;13.858;2022-11-20T09:36:16;24.25;;;10.50;;
36189;SDS011;22232;50.914;13.858;2022-11-20T09:38:45;24.50;;;10.70;;
36189;SDS011;22232;50.914;13.858;2022-11-20T09:53:30;22.20;;;10.98;;
36189;SDS011;22232;50.914;13.858;2022-11-20T09:56:03;26.83;;;12.95;;
36189;SDS011;22232;50.914;13.858;2022-11-20T09:58:36;22.02;;;10.25;;
36189;SDS011;22232;50.914;13.858;2022-11-20T10:01:19;18.13;;;8.73;;
36189;SDS011;22232;50.914;13.858;2022-11-20T10:09:05;21.63;;;9.85;;
36189;SDS011;22232;50.914;13.858;2022-11-20T10:22:23;16.85;;;7.70;;
36189;SDS011;22232;50.914;13.858;2022-11-20T10:24:56;21.08;;;9.27;;
36189;SDS011;22232;50.914;13.858;2022-11-20T10:30:21;20.27;;;9.05;;
36189;SDS011;22232;50.914;13.858;2022-11-20T10:32:53;21.05;;;10.05;;
36189;SDS011;22232;50.914;13.858;2022-11-20T10:35:40;22.13;;;10.07;;
36189;SDS011;22232;50.914;13.858;2022-11-20T10:38:31;20.00;;;9.85;;
36189;SDS011;22232;50.914;13.858;2022-11-20T10:41:03;21.33;;;9.75;;
36189;SDS011;22232;50.914;13.858;2022-11-20T10:43:53;18.67;;;9.43;;
36189;SDS011;22232;50.914;13.858;2022-11-20T10:46:29;22.20;;;10.63;;
36189;SDS011;22232;50.914;13.858;2022-11-20T10:49:06;20.27;;;9.82;;
36189;SDS011;22232;50.914;13.858;2022-11-20T10:54:47;14.63;;;7.40;;
36189;SDS011;22232;50.914;13.858;2022-11-20T11:02:23;20.52;;;10.25;;
36189;SDS011;22232;50.914;13.858;2022-11-20T11:04:58;13.07;;;7.15;;
36189;SDS011;22232;50.914;13.858;2022-11-20T11:07:40;12.27;;;6.15;;
36189;SDS011;22232;50.914;13.858;2022-11-20T11:13:02;10.30;;;5.78;;
36189;SDS011;22232;50.914;13.858;2022-11-20T11:15:36;10.82;;;6.00;;
36189;SDS011;22232;50.914;13.858;2022-11-20T11:18:09;21.42;;;10.15;;
36189;SDS011;22232;50.914;13.858;2022-11-20T11:20:37;24.95;;;11.35;;
36189;SDS011;22232;50.914;13.858;2022-11-20T11:23:10;21.35;;;10.57;;
36189;SDS011;22232;50.914;13.858;2022-11-20T11:25:59;21.15;;;10.75;;
36189;SDS011;22232;50.914;13.858;2022-11-20T11:28:28;20.50;;;10.20;;
36189;SDS011;22232;50.914;13.858;2022-11-20T11:30:55;22.30;;;10.25;;
36189;SDS011;22232;50.914;13.858;2022-11-20T11:36:01;8.35;;;4.63;;
36189;SDS011;22232;50.914;13.858;2022-11-20T11:38:34;9.18;;;4.93;;
36189;SDS011;22232;50.914;13.858;2022-11-20T11:41:04;8.23;;;4.73;;
36189;SDS011;22232;50.914;13.858;2022-11-20T11:43:34;8.48;;;4.70;;
36189;SDS011;22232;50.914;13.858;2022-11-20T11:48:57;7.28;;;4.18;;
36189;SDS011;22232;50.914;13.858;2022-11-20T11:51:31;7.43;;;4.30;;
36189;SDS011;22232;50.914;13.858;2022-11-20T11:54:10;7.95;;;4.30;;
36189;SDS011;22232;50.914;13.858;2022-11-20T11:56:57;6.85;;;4.05;;
36189;SDS011;22232;50.914;13.858;2022-11-20T12:05:20;11.43;;;5.22;;
36189;SDS011;22232;50.914;13.858;2022-11-20T12:10:46;9.10;;;5.03;;
36189;SDS011;22232;50.914;13.858;2022-11-20T12:13:21;11.55;;;6.15;;
36189;SDS011;22232;50.914;13.858;2022-11-20T12:15:53;12.25;;;5.78;;
36189;SDS011;22232;50.914;13.858;2022-11-20T12:18:21;12.52;;;6.38;;
36189;SDS011;22232;50.914;13.858;2022-11-20T12:32:06;12.93;;;6.40;;
36189;SDS011;22232;50.914;13.858;2022-11-20T12:39:46;19.88;;;8.45;;
36189;SDS011;22232;50.914;13.858;2022-11-20T12:56:57;21.90;;;10.65;;
36189;SDS011;22232;50.914;13.858;2022-11-20T12:59:39;22.35;;;10.02;;
36189;SDS011;22232;50.914;13.858;2022-11-20T13:07:50;24.20;;;11.07;;
36189;SDS011;22232;50.914;13.858;2022-11-20T13:10:30;22.17;;;10.43;;
36189;SDS011;22232;50.914;13.858;2022-11-20T13:13:17;23.10;;;10.98;;
36189;SDS011;22232;50.914;13.858;2022-11-20T13:18:40;26.05;;;11.50;;
36189;SDS011;22232;50.914;13.858;2022-11-20T13:21:19;28.75;;;13.02;;
36189;SDS011;22232;50.914;13.858;2022-11-20T13:23:48;27.90;;;11.73;;
36189;SDS011;22232;50.914;13.858;2022-11-20T13:26:17;28.65;;;12.23;;
36189;SDS011;22232;50.914;13.858;2022-11-20T13:29:00;27.40;;;12.20;;
36189;SDS011;22232;50.914;13.858;2022-11-20T13:31:39;28.15;;;12.35;;
36189;SDS011;22232;50.914;13.858;2022-11-20T13:34:14;29.00;;;12.43;;
36189;SDS011;22232;50.914;13.858;2022-11-20T13:36:53;31.13;;;12.55;;
36189;SDS011;22232;50.914;13.858;2022-11-20T13:41:57;28.42;;;12.48;;
36189;SDS011;22232;50.914;13.858;2022-11-20T13:44:53;28.63;;;12.45;;
36189;SDS011;22232;50.914;13.858;2022-11-20T13:47:23;30.30;;;13.00;;
36189;SDS011;22232;50.914;13.858;2022-11-20T13:49:53;26.00;;;11.50;;
36189;SDS011;22232;50.914;13.858;2022-11-20T14:01:14;30.48;;;12.02;;
36189;SDS011;22232;50.914;13.858;2022-11-20T14:03:37;25.58;;;11.73;;
36189;SDS011;22232;50.914;13.858;2022-11-20T14:06:29;26.83;;;12.23;;
36189;SDS011;22232;50.914;13.858;2022-11-20T14:08:59;25.60;;;11.82;;
36189;SDS011;22232;50.914;13.858;2022-11-20T14:11:28;26.70;;;11.68;;
36189;SDS011;22232;50.914;13.858;2022-11-20T14:13:58;26.52;;;11.88;;
36189;SDS011;22232;50.914;13.858;2022-11-20T14:16:28;26.67;;;11.10;;
36189;SDS011;22232;50.914;13.858;2022-11-20T14:19:14;25.73;;;12.02;;
36189;SDS011;22232;50.914;13.858;2022-11-20T14:21:47;23.58;;;11.25;;
36189;SDS011;22232;50.914;13.858;2022-11-20T14:24:20;23.55;;;11.35;;
36189;SDS011;22232;50.914;13.858;2022-11-20T14:29:18;25.17;;;11.45;;
36189;SDS011;22232;50.914;13.858;2022-11-20T14:31:53;21.48;;;11.10;;
36189;SDS011;22232;50.914;13.858;2022-11-20T14:34:26;23.20;;;11.05;;
36189;SDS011;22232;50.914;13.858;2022-11-20T14:36:57;21.00;;;9.73;;
36189;SDS011;22232;50.914;13.858;2022-11-20T14:39:35;19.23;;;10.00;;
36189;SDS011;22232;50.914;13.858;2022-11-20T14:42:26;18.30;;;9.30;;
36189;SDS011;22232;50.914;13.858;2022-11-20T14:44:56;21.08;;;10.27;;
36189;SDS011;22232;50.914;13.858;2022-11-20T14:47:29;22.25;;;10.73;;
36189;SDS011;22232;50.914;13.858;2022-11-20T14:49:58;20.73;;;10.10;;
36189;SDS011;22232;50.914;13.858;2022-11-20T14:52:34;20.98;;;9.75;;
36189;SDS011;22232;50.914;13.858;2022-11-20T14:55:02;22.65;;;10.50;;
36189;SDS011;22232;50.914;13.858;2022-11-20T14:57:31;18.80;;;9.55;;
36189;SDS011;22232;50.914;13.858;2022-11-20T15:02:43;22.73;;;10.40;;
36189;SDS011;22232;50.914;13.858;2022-11-20T15:05:19;22.88;;;10.27;;
36189;SDS011;22232;50.914;13.858;2022-11-20T15:07:50;21.38;;;10.77;;
36189;SDS011;22232;50.914;13.858;2022-11-20T15:10:31;26.25;;;10.85;;
36189;SDS011;22232;50.914;13.858;2022-11-20T15:13:00;22.83;;;10.70;;
36189;SDS011;22232;50.914;13.858;2022-11-20T15:15:50;23.42;;;11.45;;
36189;SDS011;22232;50.914;13.858;2022-11-20T15:18:19;24.17;;;11.23;;
36189;SDS011;22232;50.914;13.858;2022-11-20T15:20:50;23.02;;;10.52;;
36189;SDS011;22232;50.914;13.858;2022-11-20T15:23:20;24.75;;;11.73;;
36189;SDS011;22232;50.914;13.858;2022-11-20T15:25:48;20.73;;;9.90;;
36189;SDS011;22232;50.914;13.858;2022-11-20T15:30:59;21.38;;;10.70;;
36189;SDS011;22232;50.914;13.858;2022-11-20T15:33:27;25.00;;;10.52;;
36189;SDS011;22232;50.914;13.858;2022-11-20T15:35:55;18.20;;;9.82;;
36189;SDS011;22232;50.914;13.858;2022-11-20T15:38:24;22.50;;;10.23;;
36189;SDS011;22232;50.914;13.858;2022-11-20T15:40:51;20.25;;;10.23;;
36189;SDS011;22232;50.914;13.858;2022-11-20T15:43:19;19.35;;;9.65;;
36189;SDS011;22232;50.914;13.858;2022-11-20T15:45:50;20.58;;;10.60;;
36189;SDS011;22232;50.914;13.858;2022-11-20T15:48:25;19.98;;;9.60;;
36189;SDS011;22232;50.914;13.858;2022-11-20T15:53:32;21.55;;;10.57;;
36189;SDS011;22232;50.914;13.858;2022-11-20T15:56:00;23.88;;;11.48;;
36189;SDS011;22232;50.914;13.858;2022-11-20T15:58:27;24.35;;;11.95;;
36189;SDS011;22232;50.914;13.858;2022-11-20T16:00:55;25.83;;;11.50;;
36189;SDS011;22232;50.914;13.858;2022-11-20T16:03:23;22.90;;;10.63;;
36189;SDS011;22232;50.914;13.858;2022-11-20T16:05:51;21.80;;;10.70;;
36189;SDS011;22232;50.914;13.858;2022-11-20T16:08:18;22.90;;;9.95;;
36189;SDS011;22232;50.914;13.858;2022-11-20T16:10:46;23.10;;;10.40;;
36189;SDS011;22232;50.914;13.858;2022-11-20T16:13:14;21.23;;;10.52;;
36189;SDS011;22232;50.914;13.858;2022-11-20T16:16:04;20.13;;;9.57;;
36189;SDS011;22232;50.914;13.858;2022-11-20T16:18:35;21.77;;;10.80;;
36189;SDS011;22232;50.914;13.858;2022-11-20T16:21:02;23.70;;;10.45;;
36189;SDS011;22232;50.914;13.858;2022-11-20T16:23:30;20.30;;;9.75;;
36189;SDS011;22232;50.914;13.858;2022-11-20T16:25:58;20.10;;;9.70;;
36189;SDS011;22232;50.914;13.858;2022-11-20T16:28:25;22.85;;;10.80;;
36189;SDS011;22232;50.914;13.858;2022-11-20T16:30:53;20.17;;;10.18;;
36189;SDS011;22232;50.914;13.858;2022-11-20T16:33:20;19.33;;;9.70;;
36189;SDS011;22232;50.914;13.858;2022-11-20T16:35:48;18.02;;;9.32;;
36189;SDS011;22232;50.914;13.858;2022-11-20T16:38:15;17.75;;;8.85;;
36189;SDS011;22232;50.914;13.858;2022-11-20T16:40:43;22.90;;;10.13;;
36189;SDS011;22232;50.914;13.858;2022-11-20T16:43:10;17.88;;;9.23;;
36189;SDS011;22232;50.914;13.858;2022-11-20T16:45:41;19.02;;;9.52;;
36189;SDS011;22232;50.914;13.858;2022-11-20T16:48:14;20.33;;;9.85;;